createdAt,value
2022-08-03T00:02:18.623Z,101407.84
2022-08-03T00:04:46.696Z,101400.69
2022-08-03T00:07:14.609Z,101403.59
2022-08-03T00:09:43.887Z,101397.28
2022-08-03T00:12:11.829Z,101402.75
2022-08-03T00:14:39.830Z,101409.44
2022-08-03T00:17:07.919Z,101400.88
2022-08-03T00:19:36.146Z,101406.81
2022-08-03T00:22:04.159Z,101398.44
2022-08-03T00:24:32.333Z,101401.34
2022-08-03T00:27:01.619Z,101392.00
2022-08-03T00:29:29.642Z,101396.00
2022-08-03T00:31:59.431Z,101389.28
2022-08-03T00:34:36.661Z,101385.53
2022-08-03T00:37:16.623Z,101386.28
2022-08-03T00:39:46.296Z,101379.78
2022-08-03T00:42:16.103Z,101382.59
2022-08-03T00:44:46.191Z,101377.13
2022-08-03T00:47:14.156Z,101379.50
2022-08-03T00:49:43.127Z,101383.09
2022-08-03T00:52:12.146Z,101373.09
2022-08-03T00:54:40.803Z,101378.84
2022-08-03T00:57:09.363Z,101382.25
2022-08-03T00:59:39.692Z,101368.22
2022-08-03T01:02:07.632Z,101383.19
2022-08-03T01:04:35.556Z,101375.44
2022-08-03T01:07:12.411Z,101376.03
2022-08-03T01:09:50.457Z,101367.25
2022-08-03T01:12:31.129Z,101386.09
2022-08-03T01:15:10.625Z,101370.34
2022-08-03T01:17:50.511Z,101365.56
2022-08-03T01:20:21.838Z,101364.44
2022-08-03T01:23:14.991Z,101363.41
2022-08-03T01:26:00.922Z,101361.78
2022-08-03T01:28:43.228Z,101360.38
2022-08-03T01:31:18.174Z,101367.06
2022-08-03T01:33:54.129Z,101361.41
2022-08-03T01:36:26.176Z,101352.38
2022-08-03T01:38:57.291Z,101358.06
2022-08-03T01:41:32.021Z,101352.97
2022-08-03T01:44:29.826Z,101346.44
2022-08-03T01:46:52.089Z,101351.53
2022-08-03T01:49:21.409Z,101352.84
2022-08-03T01:51:56.713Z,101355.31
2022-08-03T01:54:32.254Z,101351.81
2022-08-03T01:57:00.804Z,101351.72
2022-08-03T01:59:31.568Z,101348.31
2022-08-03T02:02:15.433Z,101348.31
2022-08-03T02:04:51.559Z,101339.75
2022-08-03T02:07:20.998Z,101346.91
2022-08-03T02:09:53.539Z,101347.28
2022-08-03T02:12:23.616Z,101346.72
2022-08-03T02:14:52.601Z,101343.22
2022-08-03T02:17:39.434Z,101352.66
2022-08-03T02:20:09.803Z,101345.41
2022-08-03T02:22:40.469Z,101346.34
2022-08-03T02:25:09.666Z,101347.09
2022-08-03T02:27:43.865Z,101343.59
2022-08-03T02:30:14.319Z,101350.47
2022-08-03T02:32:49.332Z,101342.09
2022-08-03T02:35:19.634Z,101349.44
2022-08-03T02:37:52.943Z,101345.75
2022-08-03T02:40:21.541Z,101347.75
2022-08-03T02:42:54.488Z,101339.31
2022-08-03T02:45:25.437Z,101348.25
2022-08-03T02:47:59.162Z,101337.22
2022-08-03T02:50:28.546Z,101354.38
2022-08-03T02:52:58.731Z,101355.97
2022-08-03T02:55:27.842Z,101352.69
2022-08-03T02:58:01.656Z,101348.34
2022-08-03T03:00:30.713Z,101351.63
2022-08-03T03:03:02.629Z,101353.84
2022-08-03T03:05:56.116Z,101359.78
2022-08-03T03:08:27.439Z,101354.56
2022-08-03T03:10:59.161Z,101359.91
2022-08-03T03:13:29.586Z,101356.59
2022-08-03T03:16:00.839Z,101356.28
2022-08-03T03:18:32.119Z,101361.97
2022-08-03T03:21:01.977Z,101355.94
2022-08-03T03:23:31.700Z,101362.81
2022-08-03T03:26:02.415Z,101352.00
2022-08-03T03:28:31.835Z,101358.53
2022-08-03T03:31:00.378Z,101348.66
2022-08-03T03:33:28.771Z,101353.59
2022-08-03T03:35:59.656Z,101346.41
2022-08-03T03:38:28.014Z,101351.31
2022-08-03T03:40:56.762Z,101355.94
2022-08-03T03:43:25.784Z,101355.16
2022-08-03T03:45:54.049Z,101355.09
2022-08-03T03:48:22.239Z,101353.59
2022-08-03T03:50:50.926Z,101358.69
2022-08-03T03:53:20.601Z,101351.03
2022-08-03T03:55:57.939Z,101344.91
2022-08-03T03:58:32.067Z,101347.81
2022-08-03T04:01:00.266Z,101354.06
2022-08-03T04:03:28.372Z,101345.00
2022-08-03T04:06:13.740Z,101343.03
2022-08-03T04:09:00.521Z,101347.34
2022-08-03T04:11:33.244Z,101346.59
2022-08-03T04:14:06.214Z,101349.06
2022-08-03T04:16:41.904Z,101354.19
2022-08-03T04:19:17.501Z,101355.88
2022-08-03T04:21:53.888Z,101355.63
2022-08-03T04:24:30.988Z,101354.78
2022-08-03T04:27:01.973Z,101360.97
2022-08-03T04:29:34.260Z,101359.75
2022-08-03T04:32:03.278Z,101354.50
2022-08-03T04:34:31.840Z,101355.63
2022-08-03T04:37:02.992Z,101366.69
2022-08-03T04:39:33.906Z,101366.44
2022-08-03T04:42:07.993Z,101368.84
2022-08-03T04:44:38.701Z,101364.06
2022-08-03T04:47:06.964Z,101363.25
2022-08-03T04:49:37.665Z,101371.34
2022-08-03T04:52:06.591Z,101365.44
2022-08-03T04:54:42.467Z,101367.22
2022-08-03T04:57:11.549Z,101372.19
2022-08-03T04:59:58.183Z,101373.72
2022-08-03T05:02:31.039Z,101366.38
2022-08-03T05:04:59.099Z,101374.00
2022-08-03T05:07:35.473Z,101369.75
2022-08-03T05:10:14.904Z,101373.72
2022-08-03T05:12:44.727Z,101373.09
2022-08-03T05:15:12.964Z,101370.53
2022-08-03T05:17:41.117Z,101379.34
2022-08-03T05:20:10.377Z,101373.59
2022-08-03T05:22:38.318Z,101378.03
2022-08-03T05:25:08.536Z,101368.44
2022-08-03T05:27:36.483Z,101376.81
2022-08-03T05:30:31.684Z,101375.91
2022-08-03T05:32:53.494Z,101372.06
2022-08-03T05:35:55.962Z,101373.66
2022-08-03T05:38:09.420Z,101380.81
2022-08-03T05:40:38.731Z,101371.00
2022-08-03T05:43:14.873Z,101376.75
2022-08-03T05:45:44.072Z,101382.47
2022-08-03T05:48:11.989Z,101383.44
2022-08-03T05:50:42.766Z,101375.41
2022-08-03T05:53:10.905Z,101385.38
2022-08-03T05:55:40.204Z,101385.31
2022-08-03T05:58:08.129Z,101380.78
2022-08-03T06:00:39.441Z,101386.06
2022-08-03T06:03:07.417Z,101376.81
2022-08-03T06:05:36.597Z,101379.28
2022-08-03T06:08:11.449Z,101390.94
2022-08-03T06:10:44.807Z,101390.97
2022-08-03T06:13:12.748Z,101385.19
2022-08-03T06:15:40.698Z,101387.13
2022-08-03T06:18:08.993Z,101378.41
2022-08-03T06:20:36.925Z,101377.88
2022-08-03T06:23:05.635Z,101381.75
2022-08-03T06:25:35.508Z,101381.53
2022-08-03T06:28:07.633Z,101373.38
2022-08-03T06:30:37.490Z,101378.56
2022-08-03T06:33:05.509Z,101376.50
2022-08-03T06:35:36.389Z,101380.41
2022-08-03T06:38:05.090Z,101372.84
2022-08-03T06:40:39.867Z,101375.88
2022-08-03T06:43:12.646Z,101381.50
2022-08-03T06:45:40.878Z,101381.16
2022-08-03T06:48:10.956Z,101375.59
2022-08-03T06:50:41.514Z,101380.97
2022-08-03T06:53:15.634Z,101372.53
2022-08-03T06:55:54.257Z,101364.72
2022-08-03T06:58:24.212Z,101363.22
2022-08-03T07:00:52.172Z,101364.06
2022-08-03T07:03:20.786Z,101365.38
2022-08-03T07:05:49.157Z,101367.06
2022-08-03T07:08:17.074Z,101367.06
2022-08-03T07:11:01.179Z,101363.63
2022-08-03T07:13:30.702Z,101365.59
2022-08-03T07:15:58.620Z,101360.06
2022-08-03T07:18:29.586Z,101361.13
2022-08-03T07:20:58.092Z,101361.81
2022-08-03T07:23:26.503Z,101359.69
2022-08-03T07:25:54.381Z,101366.03
2022-08-03T07:28:22.363Z,101355.91
2022-08-03T07:30:51.926Z,101362.50
2022-08-03T07:33:19.820Z,101363.09
2022-08-03T07:35:47.835Z,101363.34
2022-08-03T07:38:16.311Z,101367.56
2022-08-03T07:40:46.278Z,101365.38
2022-08-03T07:43:14.600Z,101363.31
2022-08-03T07:45:42.517Z,101362.47
2022-08-03T07:48:12.682Z,101373.44
2022-08-03T07:50:40.721Z,101366.69
2022-08-03T07:53:08.882Z,101370.28
2022-08-03T07:55:36.873Z,101367.31
2022-08-03T07:58:07.599Z,101371.91
2022-08-03T08:00:35.533Z,101359.66
2022-08-03T08:03:04.071Z,101356.06
2022-08-03T08:05:33.886Z,101361.81
2022-08-03T08:08:02.209Z,101363.53
2022-08-03T08:10:30.866Z,101367.50
2022-08-03T08:12:58.848Z,101367.50
2022-08-03T08:15:26.972Z,101358.78
2022-08-03T08:17:56.365Z,101362.16
2022-08-03T08:20:30.475Z,101366.34
2022-08-03T08:23:02.067Z,101364.69
2022-08-03T08:25:32.549Z,101371.03
2022-08-03T08:28:22.362Z,101367.19
2022-08-03T08:30:51.930Z,101361.41
2022-08-03T08:33:23.199Z,101359.16
2022-08-03T08:35:53.058Z,101363.69
2022-08-03T08:38:23.105Z,101357.53
2022-08-03T08:40:51.916Z,101354.06
2022-08-03T08:43:19.978Z,101360.22
2022-08-03T08:45:50.066Z,101355.34
2022-08-03T08:48:22.728Z,101352.88
2022-08-03T08:50:54.140Z,101353.25
2022-08-03T08:53:27.267Z,101356.34
2022-08-03T08:55:59.068Z,101349.31
2022-08-03T08:58:31.299Z,101354.00
2022-08-03T09:00:59.823Z,101351.06
2022-08-03T09:03:30.241Z,101338.53
2022-08-03T09:06:02.196Z,101343.31
2022-08-03T09:08:33.200Z,101345.28
2022-08-03T09:11:01.478Z,101349.44
2022-08-03T09:13:30.557Z,101340.84
2022-08-03T09:16:15.440Z,101340.16
2022-08-03T09:18:44.744Z,101331.97
2022-08-03T09:21:34.241Z,101323.69
2022-08-03T09:24:10.302Z,101320.34
2022-08-03T09:26:52.191Z,101320.19
2022-08-03T09:29:22.322Z,101314.38
2022-08-03T09:31:50.344Z,101324.38
2022-08-03T09:34:19.582Z,101318.13
2022-08-03T09:36:48.577Z,101309.25
2022-08-03T09:39:40.961Z,101322.31
2022-08-03T09:42:11.165Z,101306.31
2022-08-03T09:44:45.226Z,101304.34
2022-08-03T09:47:17.387Z,101311.28
2022-08-03T09:49:58.438Z,101307.38
2022-08-03T09:52:38.867Z,101314.06
2022-08-03T09:56:21.161Z,101310.81
2022-08-03T09:58:07.122Z,101311.78
2022-08-03T10:00:55.004Z,101298.69
2022-08-03T10:03:23.707Z,101301.50
2022-08-03T10:05:54.822Z,101293.09
2022-08-03T10:08:24.603Z,101298.38
2022-08-03T10:10:55.091Z,101292.56
2022-08-03T10:13:24.286Z,101291.16
2022-08-03T10:16:21.662Z,101304.44
2022-08-03T10:18:40.209Z,101301.44
2022-08-03T10:21:11.430Z,101293.34
2022-08-03T10:23:42.166Z,101290.31
2022-08-03T10:26:17.328Z,101278.88
2022-08-03T10:28:51.232Z,101279.16
2022-08-03T10:31:21.643Z,101281.88
2022-08-03T10:33:53.452Z,101285.75
2022-08-03T10:36:25.293Z,101281.09
2022-08-03T10:38:54.365Z,101273.03
2022-08-03T10:41:27.098Z,101276.09
2022-08-03T10:44:04.140Z,101273.00
2022-08-03T10:46:34.477Z,101263.81
2022-08-03T10:49:03.398Z,101268.31
2022-08-03T10:51:33.031Z,101271.09
2022-08-03T10:54:01.858Z,101261.84
2022-08-03T10:57:09.518Z,101259.34
2022-08-03T11:00:00.475Z,101249.75
2022-08-03T11:03:02.212Z,101250.66
2022-08-03T11:05:31.367Z,101256.31
2022-08-03T11:08:25.539Z,101257.69
2022-08-03T11:10:55.912Z,101238.75
2022-08-03T11:13:26.504Z,101248.22
2022-08-03T11:15:59.672Z,101243.22
2022-08-03T11:18:29.985Z,101246.00
2022-08-03T11:20:59.044Z,101240.41
2022-08-03T11:24:04.129Z,101248.75
2022-08-03T11:26:34.641Z,101250.72
2022-08-03T11:29:32.203Z,101243.50
2022-08-03T11:32:00.226Z,101242.09
2022-08-03T11:34:28.218Z,101244.88
2022-08-03T11:37:22.968Z,101238.16
2022-08-03T11:39:54.552Z,101240.44
2022-08-03T11:42:48.283Z,101241.00
2022-08-03T11:45:19.828Z,101250.16
2022-08-03T11:47:50.825Z,101235.38
2022-08-03T11:50:20.193Z,101244.31
2022-08-03T11:52:49.782Z,101247.97
2022-08-03T11:55:20.486Z,101235.97
2022-08-03T11:59:17.242Z,101239.06
2022-08-03T12:00:40.283Z,101228.44
2022-08-03T12:03:11.150Z,101233.19
2022-08-03T12:05:42.165Z,101233.44
2022-08-03T12:08:29.898Z,101231.19
2022-08-03T12:11:00.059Z,101227.03
2022-08-03T12:14:43.764Z,101234.88
2022-08-03T12:16:26.517Z,101230.94
2022-08-03T12:18:58.731Z,101229.28
2022-08-03T12:21:26.801Z,101226.75
2022-08-03T12:24:00.018Z,101224.53
2022-08-03T12:26:29.258Z,101221.75
2022-08-03T12:28:57.406Z,101235.41
2022-08-03T12:31:26.911Z,101218.94
2022-08-03T12:34:02.013Z,101214.78
2022-08-03T12:36:31.088Z,101212.28
2022-08-03T12:39:00.811Z,101213.88
2022-08-03T12:41:30.582Z,101211.16
2022-08-03T12:43:58.791Z,101220.59
2022-08-03T12:46:33.571Z,101208.94
2022-08-03T12:49:08.052Z,101203.91
2022-08-03T12:51:38.048Z,101207.25
2022-08-03T12:54:07.143Z,101203.06
2022-08-03T12:56:35.643Z,101197.78
2022-08-03T12:59:32.331Z,101186.63
2022-08-03T13:02:09.664Z,101195.22
2022-08-03T13:04:38.125Z,101191.66
2022-08-03T13:07:12.896Z,101189.16
2022-08-03T13:09:44.307Z,101189.16
2022-08-03T13:12:14.467Z,101189.44
2022-08-03T13:14:43.130Z,101187.47
2022-08-03T13:17:13.384Z,101193.91
2022-08-03T13:19:42.087Z,101185.25
2022-08-03T13:22:15.190Z,101196.13
2022-08-03T13:24:44.581Z,101197.22
2022-08-03T13:28:01.991Z,101186.03
2022-08-03T13:30:02.175Z,101187.00
2022-08-03T13:32:31.723Z,101187.28
2022-08-03T13:35:00.063Z,101184.19
2022-08-03T13:37:28.121Z,101170.41
2022-08-03T13:39:59.346Z,101174.88
2022-08-03T13:42:30.646Z,101167.94
2022-08-03T13:44:58.992Z,101171.28
2022-08-03T13:47:27.227Z,101175.44
2022-08-03T13:50:00.910Z,101167.38
2022-08-03T13:52:31.739Z,101160.38
2022-08-03T13:55:00.153Z,101170.78
2022-08-03T13:58:02.554Z,101169.16
2022-08-03T14:00:27.059Z,101160.69
2022-08-03T14:03:14.873Z,101162.03
2022-08-03T14:05:45.244Z,101159.31
2022-08-03T14:08:13.910Z,101151.81
2022-08-03T14:10:44.015Z,101154.75
2022-08-03T14:13:12.906Z,101150.38
2022-08-03T14:15:51.203Z,101148.47
2022-08-03T14:18:28.248Z,101147.56
2022-08-03T14:21:06.312Z,101145.34
2022-08-03T14:23:36.161Z,101145.94
2022-08-03T14:26:04.482Z,101141.75
2022-08-03T14:28:32.701Z,101146.94
2022-08-03T14:31:01.015Z,101150.09
2022-08-03T14:33:29.395Z,101140.63
2022-08-03T14:35:57.582Z,101134.22
2022-08-03T14:38:27.068Z,101134.25
2022-08-03T14:40:55.208Z,101139.44
2022-08-03T14:43:23.158Z,101134.22
2022-08-03T14:45:53.553Z,101139.41
2022-08-03T14:50:28.837Z,101137.00
2022-08-03T14:51:10.407Z,101137.94
2022-08-03T14:53:39.767Z,101127.28
2022-08-03T14:56:10.396Z,101119.13
2022-08-03T14:58:39.089Z,101125.84
2022-08-03T15:02:02.365Z,101118.53
2022-08-03T15:03:55.930Z,101109.66
2022-08-03T15:06:23.868Z,101117.16
2022-08-03T15:09:13.752Z,101112.75
2022-08-03T15:11:41.556Z,101122.47
2022-08-03T15:14:09.756Z,101113.88
2022-08-03T15:16:38.352Z,101113.56
2022-08-03T15:20:01.364Z,101110.81
2022-08-03T15:21:55.089Z,101103.00
2022-08-03T15:24:24.413Z,101108.47
2022-08-03T15:26:53.125Z,101101.69
2022-08-03T15:30:07.257Z,101096.69
2022-08-03T15:32:09.708Z,101104.59
2022-08-03T15:34:37.833Z,101109.03
2022-08-03T15:37:16.418Z,101104.03
2022-08-03T15:39:59.558Z,101101.78
2022-08-03T15:42:29.875Z,101103.72
2022-08-03T15:44:58.080Z,101097.81
2022-08-03T15:47:26.122Z,101099.22
2022-08-03T15:49:54.030Z,101094.78
2022-08-03T15:52:21.985Z,101099.81
2022-08-03T15:54:51.409Z,101096.78
2022-08-03T15:57:19.425Z,101099.78
2022-08-03T15:59:47.642Z,101096.44
2022-08-03T16:02:16.088Z,101092.22
2022-08-03T16:04:43.972Z,101092.88
2022-08-03T16:07:12.658Z,101097.91
2022-08-03T16:09:45.788Z,101093.97
2022-08-03T16:12:16.786Z,101087.63
2022-08-03T16:14:53.751Z,101091.28
2022-08-03T16:17:23.551Z,101086.47
2022-08-03T16:19:52.299Z,101085.41
2022-08-03T16:22:23.774Z,101079.56
2022-08-03T16:24:51.992Z,101078.06
2022-08-03T16:27:56.653Z,101082.19
2022-08-03T16:30:12.757Z,101084.66
2022-08-03T16:32:40.776Z,101077.16
2022-08-03T16:35:09.481Z,101080.75
2022-08-03T16:37:50.674Z,101073.22
2022-08-03T16:40:25.879Z,101081.00
2022-08-03T16:42:55.489Z,101080.00
2022-08-03T16:45:23.720Z,101076.03
2022-08-03T16:48:01.650Z,101075.22
2022-08-03T16:50:34.176Z,101078.09
2022-08-03T16:53:03.553Z,101081.94
2022-08-03T16:55:53.960Z,101083.47
2022-08-03T16:58:24.302Z,101078.28
2022-08-03T17:01:10.879Z,101082.91
2022-08-03T17:04:01.438Z,101074.22
2022-08-03T17:06:33.867Z,101081.94
2022-08-03T17:09:03.934Z,101079.28
2022-08-03T17:11:38.307Z,101083.66
2022-08-03T17:14:14.661Z,101084.75
2022-08-03T17:16:52.477Z,101081.47
2022-08-03T17:19:27.509Z,101087.69
2022-08-03T17:22:04.345Z,101085.22
2022-08-03T17:24:34.775Z,101095.16
2022-08-03T17:27:08.547Z,101091.00
2022-08-03T17:29:45.359Z,101096.88
2022-08-03T17:32:18.321Z,101100.09
2022-08-03T17:34:50.285Z,101095.41
2022-08-03T17:37:50.114Z,101095.47
2022-08-03T17:40:12.524Z,101100.59
2022-08-03T17:42:50.818Z,101097.91
2022-08-03T17:45:21.323Z,101096.69
2022-08-03T17:47:57.500Z,101094.50
2022-08-03T17:50:35.543Z,101092.06
2022-08-03T17:53:15.283Z,101104.56
2022-08-03T17:56:04.807Z,101095.41
2022-08-03T17:58:43.591Z,101104.06
2022-08-03T18:02:02.089Z,101108.28
2022-08-03T18:04:29.999Z,101105.63
2022-08-03T18:07:00.116Z,101099.69
2022-08-03T18:10:05.755Z,101106.19
2022-08-03T18:12:27.029Z,101103.81
2022-08-03T18:15:01.583Z,101110.44
2022-08-03T18:17:55.836Z,101113.44
2022-08-03T18:20:34.747Z,101109.59
2022-08-03T18:23:10.375Z,101109.47
2022-08-03T18:25:44.397Z,101114.69
2022-08-03T18:28:15.407Z,101111.66
2022-08-03T18:30:54.438Z,101110.56
2022-08-03T18:34:17.831Z,101110.91
2022-08-03T18:39:06.416Z,101115.00
2022-08-03T18:41:35.863Z,101115.84
2022-08-03T18:44:08.130Z,101122.06
2022-08-03T18:46:51.732Z,101118.41
2022-08-03T18:49:37.590Z,101117.81
2022-08-03T18:52:12.172Z,101116.66
2022-08-03T18:55:02.345Z,101116.56
2022-08-03T18:57:46.525Z,101116.19
2022-08-03T19:00:17.341Z,101128.53
2022-08-03T19:02:58.765Z,101121.56
2022-08-03T19:05:49.344Z,101127.50
2022-08-03T19:08:29.847Z,101125.41
2022-08-03T19:11:06.210Z,101122.19
2022-08-03T19:13:50.470Z,101128.38
2022-08-03T19:16:28.415Z,101135.38
2022-08-03T19:19:00.204Z,101132.66
2022-08-03T19:21:30.584Z,101150.22
2022-08-03T19:24:01.404Z,101144.59
2022-08-03T19:26:30.831Z,101148.81
2022-08-03T19:29:00.064Z,101140.06
2022-08-03T19:31:30.733Z,101140.91
2022-08-03T19:34:01.191Z,101144.63
2022-08-03T19:36:31.387Z,101139.38
2022-08-03T19:38:59.582Z,101142.28
2022-08-03T19:41:41.875Z,101145.97
2022-08-03T19:44:12.519Z,101144.78
2022-08-03T19:46:54.074Z,101145.75
2022-08-03T19:49:57.094Z,101151.41
2022-08-03T19:52:20.914Z,101146.44
2022-08-03T19:54:54.669Z,101152.06
2022-08-03T19:57:25.618Z,101146.66
2022-08-03T19:59:55.895Z,101153.59
2022-08-03T20:02:26.052Z,101142.22
2022-08-03T20:04:56.389Z,101145.09
2022-08-03T20:07:26.575Z,101148.06
2022-08-03T20:09:56.718Z,101141.00
2022-08-03T20:12:27.515Z,101144.69
2022-08-03T20:14:57.029Z,101144.38
2022-08-03T20:17:54.701Z,101150.75
2022-08-03T20:20:13.764Z,101137.75
2022-08-03T20:22:51.342Z,101141.31
2022-08-03T20:25:25.385Z,101140.47
2022-08-03T20:28:14.235Z,101137.59
2022-08-03T20:30:44.481Z,101136.97
2022-08-03T20:33:18.818Z,101135.63
2022-08-03T20:35:49.073Z,101138.63
2022-08-03T20:38:19.979Z,101133.78
2022-08-03T20:40:56.304Z,101130.31
2022-08-03T20:43:27.484Z,101133.94
2022-08-03T20:46:00.027Z,101128.28
2022-08-03T20:48:48.589Z,101143.59
2022-08-03T20:51:19.961Z,101138.94
2022-08-03T20:54:29.389Z,101132.41
2022-08-03T20:56:55.352Z,101139.94
2022-08-03T20:59:28.802Z,101138.69
2022-08-03T21:01:58.442Z,101138.78
2022-08-03T21:04:26.379Z,101138.41
2022-08-03T21:07:00.638Z,101138.41
2022-08-03T21:09:49.720Z,101142.22
2022-08-03T21:12:28.925Z,101145.28
2022-08-03T21:12:58.650Z,101108.47
2022-08-03T21:15:02.659Z,101154.72
2022-08-03T21:17:41.409Z,101148.13
2022-08-03T21:20:11.456Z,101151.19
2022-08-03T21:22:43.431Z,101150.97
2022-08-03T21:25:15.811Z,101140.94
2022-08-03T21:27:44.406Z,101143.28
2022-08-03T21:30:13.011Z,101146.44
2022-08-03T21:32:45.341Z,101143.91
2022-08-03T21:35:14.448Z,101147.72
2022-08-03T21:37:44.196Z,101148.25
2022-08-03T21:40:15.330Z,101141.28
2022-08-03T21:42:45.353Z,101144.03
2022-08-03T21:45:17.418Z,101136.00
2022-08-03T21:47:46.887Z,101143.47
2022-08-03T21:50:14.996Z,101146.47
2022-08-03T21:52:44.855Z,101147.97
2022-08-03T21:55:18.576Z,101142.47
2022-08-03T21:57:53.395Z,101146.28
2022-08-03T22:00:23.996Z,101145.50
2022-08-03T22:02:55.402Z,101144.94
2022-08-03T22:05:42.608Z,101147.91
2022-08-03T22:08:13.585Z,101144.78
2022-08-03T22:10:44.783Z,101143.75
2022-08-03T22:13:13.192Z,101153.88
2022-08-03T22:15:41.811Z,101161.69
2022-08-03T22:18:10.716Z,101155.63
2022-08-03T22:20:38.924Z,101156.84
2022-08-03T22:23:08.343Z,101153.09
2022-08-03T22:25:39.431Z,101164.31
2022-08-03T22:28:12.284Z,101154.19
2022-08-03T22:30:42.504Z,101162.47
2022-08-03T22:33:12.699Z,101156.78
2022-08-03T22:35:47.282Z,101168.63
2022-08-03T22:38:17.378Z,101161.91
2022-08-03T22:40:48.013Z,101160.00
2022-08-03T22:43:17.501Z,101160.41
2022-08-03T22:46:10.138Z,101174.97
2022-08-03T22:48:40.653Z,101164.00
2022-08-03T22:51:09.828Z,101158.94
2022-08-03T22:53:37.920Z,101169.97
2022-08-03T22:56:06.161Z,101164.47
2022-08-03T22:58:35.515Z,101161.72
2022-08-03T23:01:06.924Z,101164.53
2022-08-03T23:03:59.902Z,101169.81
2022-08-03T23:06:28.081Z,101169.59
2022-08-03T23:08:57.050Z,101157.81
2022-08-03T23:11:25.424Z,101162.47
2022-08-03T23:13:57.621Z,101167.94
2022-08-03T23:16:28.633Z,101171.34
2022-08-03T23:19:00.290Z,101163.72
2022-08-03T23:21:53.147Z,101170.94
2022-08-03T23:24:30.487Z,101166.31
2022-08-03T23:26:59.330Z,101159.56
2022-08-03T23:29:31.459Z,101175.19
2022-08-03T23:32:00.405Z,101167.38
2022-08-03T23:34:46.937Z,101166.75
2022-08-03T23:37:16.045Z,101168.88
2022-08-03T23:39:46.066Z,101173.06
2022-08-03T23:42:16.269Z,101169.50
2022-08-03T23:44:46.200Z,101159.16
2022-08-03T23:47:15.067Z,101165.06
2022-08-03T23:49:43.090Z,101168.44
2022-08-03T23:52:19.488Z,101158.53
2022-08-03T23:55:02.175Z,101167.19
2022-08-03T23:57:38.457Z,101161.06
